Time;durP1;ratioP1;P1;durP2;ratioP2;P2;SDS_P1;SDS_P2;PMS_P1;PMS_P2;Temp;Humidity;BMP_temperature;BMP_pressure;BME280_temperature;BME280_humidity;BME280_pressure;Samples;Min_cycle;Max_cycle;Signal;HPM_P1;HPM_P2
2024/04/02 00:02:24;;;;;;;3.53;1.95;;;;;;;6.77;100.00;98601.44;4780752;29;20049;-79
2024/04/02 00:04:50;;;;;;;3.08;2.50;;;;;;;6.70;100.00;98611.75;4773883;29;20396;-88
2024/04/02 00:07:16;;;;;;;5.03;2.72;;;;;;;6.67;100.00;98611.28;4783207;29;20070;-91
2024/04/02 00:09:41;;;;;;;3.97;2.03;;;;;;;6.65;100.00;98605.38;4773147;29;20119;-90
2024/04/02 00:12:07;;;;;;;4.53;2.00;;;;;;;6.67;100.00;98611.28;4774774;29;20047;-90
2024/04/02 00:14:33;;;;;;;3.40;1.63;;;;;;;6.73;100.00;98612.44;4754303;30;20046;-80
2024/04/02 00:16:59;;;;;;;4.20;1.95;;;;;;;6.75;100.00;98627.06;4751930;29;20041;-81
2024/04/02 00:19:25;;;;;;;2.95;1.50;;;;;;;6.70;100.00;98621.47;4748035;30;20059;-80
2024/04/02 00:21:51;;;;;;;5.68;1.75;;;;;;;6.65;100.00;98623.75;4763609;29;20707;-80
2024/04/02 00:24:16;;;;;;;7.50;1.67;;;;;;;6.65;100.00;98623.75;4762787;29;20363;-80
2024/04/02 00:26:42;;;;;;;2.22;1.42;;;;;;;6.63;100.00;98625.72;4766673;29;20038;-80
2024/04/02 00:29:08;;;;;;;2.85;1.20;;;;;;;6.62;100.00;98634.59;4752153;29;20047;-88
2024/04/02 00:31:34;;;;;;;2.53;1.33;;;;;;;6.66;100.00;98633.25;4783260;29;20043;-88
2024/04/02 00:33:59;;;;;;;2.75;1.30;;;;;;;6.69;100.00;98646.88;4773325;29;20046;-88
2024/04/02 00:36:28;;;;;;;3.67;1.60;;;;;;;6.66;100.00;98633.25;4756148;29;20038;-90
2024/04/02 00:38:54;;;;;;;2.58;1.48;;;;;;;6.75;100.00;98641.97;4760383;29;20038;-89
2024/04/02 00:41:20;;;;;;;4.38;1.25;;;;;;;6.83;100.00;98642.78;4770770;30;20039;-89
2024/04/02 00:43:45;;;;;;;2.67;1.30;;;;;;;6.92;100.00;98650.66;4785730;29;20572;-90
2024/04/02 00:46:11;;;;;;;6.82;1.42;;;;;;;6.97;100.00;98647.53;4749288;29;20045;-80
2024/04/02 00:48:38;;;;;;;2.80;1.30;;;;;;;7.04;100.00;98646.72;4767801;29;20560;-80
2024/04/02 00:51:04;;;;;;;1.88;1.10;;;;;;;7.07;100.00;98646.38;4774491;29;20050;-88
2024/04/02 00:53:30;;;;;;;2.88;1.23;;;;;;;7.16;100.00;98647.19;4756608;29;20063;-90
2024/04/02 00:55:57;;;;;;;3.30;1.10;;;;;;;7.29;100.00;98654.53;4770170;29;20045;-90
2024/04/02 00:58:24;;;;;;;4.18;1.10;;;;;;;7.32;100.00;98656.88;4774852;29;20062;-89
2024/04/02 01:00:50;;;;;;;1.83;1.05;;;;;;;7.39;100.00;98656.19;4767397;29;20039;-80
2024/04/02 01:03:16;;;;;;;0.90;0.80;;;;;;;7.42;100.00;98651.41;4763331;29;20050;-77
2024/04/02 01:05:42;;;;;;;1.52;0.90;;;;;;;7.54;100.00;98654.50;4782354;29;20074;-78
2024/04/02 01:08:11;;;;;;;2.55;1.17;;;;;;;7.57;100.00;98650.69;4769558;29;20031;-79
2024/04/02 01:10:37;;;;;;;2.90;1.10;;;;;;;7.63;100.00;98650.03;4756223;29;20125;-87
2024/04/02 01:13:03;;;;;;;2.92;1.20;;;;;;;7.66;100.00;98652.31;4768833;29;20077;-88
2024/04/02 01:15:29;;;;;;;2.15;1.10;;;;;;;7.70;100.00;98655.44;4754506;29;20039;-89
2024/04/02 01:17:55;;;;;;;2.47;0.95;;;;;;;7.71;100.00;98654.44;4748341;29;20494;-88
2024/04/02 01:20:22;;;;;;;3.15;0.95;;;;;;;7.73;100.00;98649.84;4758797;29;20043;-88
2024/04/02 01:22:47;;;;;;;5.38;1.10;;;;;;;7.77;100.00;98653.75;4766687;29;20484;-88
2024/04/02 01:25:18;;;;;;;2.05;1.10;;;;;;;7.82;100.00;98656.69;4769949;29;20046;-79
2024/04/02 01:27:44;;;;;;;2.33;1.05;;;;;;;7.81;100.00;98655.06;4765406;29;20043;-78
2024/04/02 01:30:10;;;;;;;5.35;1.27;;;;;;;7.86;100.00;98666.88;4764307;29;20132;-78
2024/04/02 01:32:36;;;;;;;2.15;1.02;;;;;;;7.85;100.00;98662.63;4749730;29;20127;-78
2024/04/02 01:35:02;;;;;;;5.85;1.25;;;;;;;7.82;100.00;98674.28;4778657;29;20043;-79
2024/04/02 01:37:28;;;;;;;3.97;1.30;;;;;;;7.71;100.00;98664.94;4779823;29;20397;-78
2024/04/02 01:39:54;;;;;;;4.85;1.40;;;;;;;7.58;100.00;98665.47;4752043;29;20123;-79
2024/04/02 01:42:21;;;;;;;2.25;1.00;;;;;;;7.39;100.00;98664.88;4756990;29;20034;-78
2024/04/02 01:44:47;;;;;;;4.75;1.27;;;;;;;7.29;100.00;98677.41;4748055;29;20043;-78
2024/04/02 01:47:13;;;;;;;3.80;1.40;;;;;;;7.29;100.00;98670.31;4753203;29;20050;-78
2024/04/02 01:49:38;;;;;;;1.98;1.05;;;;;;;7.29;100.00;98669.50;4761760;29;20035;-80
2024/04/02 01:52:04;;;;;;;1.92;0.93;;;;;;;7.26;100.00;98672.47;4766467;29;20054;-80
2024/04/02 01:54:30;;;;;;;3.28;1.30;;;;;;;7.23;100.00;98670.97;4753847;29;20126;-80
2024/04/02 01:56:56;;;;;;;2.08;1.10;;;;;;;7.26;100.00;98675.09;4763428;29;20179;-80
2024/04/02 01:59:23;;;;;;;2.20;1.25;;;;;;;7.22;100.00;98671.97;4766517;29;20085;-79
2024/04/02 02:01:49;;;;;;;2.63;1.40;;;;;;;7.18;100.00;98679.38;4761995;29;20638;-79
2024/04/02 02:04:15;;;;;;;3.15;1.20;;;;;;;7.17;100.00;98680.34;4762607;29;20047;-89
2024/04/02 02:06:41;;;;;;;3.25;1.20;;;;;;;7.24;100.00;98671.81;4764046;29;20039;-89
2024/04/02 02:09:07;;;;;;;3.70;1.60;;;;;;;7.28;100.00;98681.81;4773945;29;20047;-90
2024/04/02 02:11:33;;;;;;;5.80;1.67;;;;;;;7.34;100.00;98679.53;4773010;29;20046;-88
2024/04/02 02:13:59;;;;;;;4.53;1.40;;;;;;;7.41;100.00;98680.47;4754089;30;20032;-80
2024/04/02 02:16:26;;;;;;;2.33;1.27;;;;;;;7.39;100.00;98678.03;4748766;29;20031;-79
2024/04/02 02:18:54;;;;;;;5.45;1.73;;;;;;;7.34;100.00;98680.34;4779041;29;20051;-81
2024/04/02 02:21:20;;;;;;;4.25;1.63;;;;;;;7.32;100.00;98671.81;4766297;29;20103;-79
2024/04/02 02:23:46;;;;;;;4.57;1.85;;;;;;;7.33;100.00;98668.19;4765053;30;20122;-80
2024/04/02 02:26:12;;;;;;;4.82;2.53;;;;;;;7.41;100.00;98672.59;4775982;29;20130;-81
2024/04/02 02:28:38;;;;;;;3.15;1.50;;;;;;;7.44;100.00;98678.34;4760336;30;20469;-80
2024/04/02 02:31:04;;;;;;;5.90;2.17;;;;;;;7.45;100.00;98681.81;4746752;29;20054;-80
2024/04/02 02:33:29;;;;;;;5.50;2.17;;;;;;;7.46;100.00;98680.81;4765481;30;20043;-79
2024/04/02 02:35:55;;;;;;;7.10;2.17;;;;;;;7.44;100.00;98678.34;4770654;29;20035;-89
2024/04/02 02:38:21;;;;;;;4.97;1.88;;;;;;;7.37;100.00;98674.75;4759885;29;20069;-88
2024/04/02 02:40:47;;;;;;;4.35;1.90;;;;;;;7.33;100.00;98678.69;4763407;29;20038;-88
2024/04/02 02:43:13;;;;;;;6.47;2.28;;;;;;;7.38;100.00;98684.28;4760072;29;20063;-89
2024/04/02 02:45:49;;;;;;;2.13;1.73;;;;;;;7.44;100.00;98683.59;4768021;30;20039;-80
2024/04/02 02:48:14;;;;;;;2.00;1.80;;;;;;;7.42;100.00;98684.78;4780087;29;20046;-77
2024/04/02 02:50:40;;;;;;;4.30;1.90;;;;;;;7.47;100.00;98686.91;4770330;29;20039;-80
2024/04/02 02:53:06;;;;;;;8.35;2.05;;;;;;;7.48;100.00;98691.97;4769984;29;20035;-78
2024/04/02 02:55:32;;;;;;;5.85;1.92;;;;;;;7.48;100.00;98686.72;4750510;29;20179;-79
2024/04/02 02:57:57;;;;;;;4.30;2.17;;;;;;;7.42;100.00;98688.19;4751678;30;20050;-78
2024/04/02 03:00:23;;;;;;;6.22;2.03;;;;;;;7.30;100.00;98685.13;4770427;29;20039;-80
2024/04/02 03:02:49;;;;;;;4.40;2.80;;;;;;;7.22;100.00;98682.50;4763452;30;20043;-78
2024/04/02 03:05:15;;;;;;;6.38;3.05;;;;;;;7.08;100.00;98681.34;4780639;29;20047;-88
2024/04/02 03:07:41;;;;;;;4.63;3.25;;;;;;;7.02;100.00;98687.28;4772543;29;20123;-86
2024/04/02 03:10:07;;;;;;;3.50;2.60;;;;;;;7.02;100.00;98693.34;4769491;29;20439;-79
2024/04/02 03:12:32;;;;;;;8.95;2.90;;;;;;;7.05;100.00;98698.28;4758804;29;20560;-81
2024/04/02 03:14:58;;;;;;;6.65;3.10;;;;;;;7.07;100.00;98706.81;4769272;29;20197;-79
2024/04/02 03:17:24;;;;;;;6.68;3.63;;;;;;;7.08;100.00;98705.00;4774169;29;20097;-79
2024/04/02 03:19:51;;;;;;;6.80;4.07;;;;;;;7.00;100.00;98700.56;4782990;29;20126;-87
2024/04/02 03:22:17;;;;;;;5.43;3.10;;;;;;;6.93;100.00;98705.66;4773188;29;20047;-87
2024/04/02 03:24:43;;;;;;;6.20;3.42;;;;;;;6.83;100.00;98705.00;4784686;29;20480;-79
2024/04/02 03:27:09;;;;;;;5.95;3.45;;;;;;;6.77;100.00;98710.91;4782051;29;20095;-78
2024/04/02 03:29:35;;;;;;;5.60;3.55;;;;;;;6.68;100.00;98708.28;4761706;29;20038;-88
2024/04/02 03:32:01;;;;;;;5.78;3.60;;;;;;;6.62;100.00;98711.53;4754598;29;20035;-89
2024/04/02 03:34:27;;;;;;;8.60;4.10;;;;;;;6.62;100.00;98714.16;4754925;29;20103;-80
2024/04/02 03:36:56;;;;;;;4.07;3.65;;;;;;;6.62;100.00;98722.03;4750278;29;20039;-80
2024/04/02 03:39:21;;;;;;;5.25;3.50;;;;;;;6.65;100.00;98718.25;4782848;29;20038;-80
2024/04/02 03:41:48;;;;;;;11.73;4.07;;;;;;;6.66;100.00;98712.03;4754525;29;20054;-80
2024/04/02 03:44:15;;;;;;;6.25;3.08;;;;;;;6.69;100.00;98709.06;4781064;29;20808;-89
2024/04/02 03:46:41;;;;;;;5.78;3.10;;;;;;;6.68;100.00;98708.28;4758944;29;20348;-88
2024/04/02 03:49:07;;;;;;;4.50;3.10;;;;;;;6.70;100.00;98708.91;4772905;29;20738;-78
2024/04/02 03:51:32;;;;;;;5.30;2.97;;;;;;;6.71;100.00;98712.38;4761698;29;20039;-78
2024/04/02 03:53:58;;;;;;;4.05;3.15;;;;;;;6.72;100.00;98721.06;4751338;29;20063;-87
2024/04/02 03:56:24;;;;;;;7.13;3.97;;;;;;;6.69;100.00;98714.31;4779329;29;20039;-88
2024/04/02 03:58:50;;;;;;;6.80;3.97;;;;;;;6.67;100.00;98719.75;4759273;29;20910;-88
2024/04/02 04:01:16;;;;;;;5.68;3.58;;;;;;;6.65;100.00;98719.09;4768325;29;20039;-79
2024/04/02 04:03:42;;;;;;;8.25;4.13;;;;;;;6.61;100.00;98720.38;4768357;29;20046;-79
2024/04/02 04:06:07;;;;;;;5.10;3.90;;;;;;;6.54;100.00;98727.28;4773900;29;20038;-88
2024/04/02 04:08:34;;;;;;;3.88;2.80;;;;;;;6.50;100.00;98729.38;4759526;29;20046;-89
2024/04/02 04:11:00;;;;;;;3.42;2.50;;;;;;;6.41;100.00;98725.09;4768613;29;20046;-79
2024/04/02 04:13:26;;;;;;;2.92;2.42;;;;;;;6.29;100.00;98728.00;4770602;29;20035;-79
2024/04/02 04:15:56;;;;;;;4.35;2.28;;;;;;;6.26;100.00;98730.97;4768922;29;20038;-80
2024/04/02 04:18:23;;;;;;;4.30;2.85;;;;;;;6.25;100.00;98737.19;4767866;29;20083;-78
2024/04/02 04:20:59;;;;;;;3.70;2.42;;;;;;;6.23;100.00;98743.59;4769744;30;20042;-88
2024/04/02 04:23:26;;;;;;;4.20;2.72;;;;;;;6.15;100.00;98739.94;4768820;29;20504;-90
2024/04/02 04:26:02;;;;;;;4.95;2.92;;;;;;;6.16;100.00;98752.06;4779540;29;20038;-90
2024/04/02 04:28:29;;;;;;;3.78;2.75;;;;;;;6.09;100.00;98751.06;4774803;29;20039;-89
2024/04/02 04:31:00;;;;;;;4.18;2.63;;;;;;;6.02;100.00;98748.22;4754958;29;20043;-80
2024/04/02 04:33:27;;;;;;;3.67;2.30;;;;;;;6.00;100.00;98750.19;4767713;29;20184;-79
2024/04/02 04:35:54;;;;;;;3.13;2.42;;;;;;;6.00;100.00;98757.22;4779365;29;20115;-89
2024/04/02 04:38:22;;;;;;;3.00;2.55;;;;;;;6.01;100.00;98756.22;4758225;29;20217;-89
2024/04/02 04:40:48;;;;;;;3.22;2.58;;;;;;;6.02;100.00;98758.69;4764308;29;20507;-89
2024/04/02 04:43:16;;;;;;;3.33;3.03;;;;;;;6.04;100.00;98763.78;4756993;29;20492;-88
2024/04/02 04:45:56;;;;;;;4.45;2.70;;;;;;;6.02;100.00;98755.28;4783636;29;20041;-79
2024/04/02 04:48:22;;;;;;;3.10;2.58;;;;;;;5.98;100.00;98754.75;4768841;29;20035;-80
2024/04/02 04:51:02;;;;;;;3.80;2.13;;;;;;;6.02;100.00;98760.53;4752118;29;20035;-79
2024/04/02 04:53:30;;;;;;;4.13;2.70;;;;;;;5.94;100.00;98758.69;4764641;29;20039;-79
2024/04/02 04:56:06;;;;;;;2.72;2.40;;;;;;;5.93;100.00;98763.09;4764172;30;20039;-89
2024/04/02 04:58:33;;;;;;;6.18;2.88;;;;;;;5.89;100.00;98772.25;4758846;29;20042;-87
2024/04/02 05:01:00;;;;;;;6.35;3.35;;;;;;;5.92;100.00;98768.50;4761694;29;20115;-80
2024/04/02 05:03:26;;;;;;;2.72;2.20;;;;;;;5.93;100.00;98762.25;4768244;29;20534;-77
2024/04/02 05:06:05;;;;;;;3.13;2.22;;;;;;;6.03;100.00;98765.63;4769019;29;20069;-87
2024/04/02 05:08:33;;;;;;;6.00;4.35;;;;;;;6.03;100.00;98770.03;4759235;29;20122;-89
2024/04/02 05:11:01;;;;;;;9.10;4.78;;;;;;;6.01;100.00;98762.31;4756178;29;20051;-89
2024/04/02 05:13:28;;;;;;;8.85;4.18;;;;;;;5.99;100.00;98766.09;4771918;29;20074;-88
2024/04/02 05:15:54;;;;;;;8.02;3.85;;;;;;;5.96;100.00;98764.56;4760234;29;20050;-89
2024/04/02 05:18:20;;;;;;;8.43;4.18;;;;;;;5.96;100.00;98769.81;4781943;29;20562;-88
2024/04/02 05:20:46;;;;;;;7.68;3.85;;;;;;;6.01;100.00;98779.84;4750499;29;20039;-79
2024/04/02 05:23:13;;;;;;;8.88;4.10;;;;;;;6.04;100.00;98780.38;4752147;29;20388;-80
2024/04/02 05:25:40;;;;;;;10.55;4.38;;;;;;;6.05;100.00;98784.66;4758701;29;20039;-78
2024/04/02 05:28:07;;;;;;;8.10;4.18;;;;;;;6.07;100.00;98787.13;4752204;29;20085;-78
2024/04/02 05:30:34;;;;;;;7.85;4.32;;;;;;;6.06;100.00;98782.84;4761657;30;20050;-89
2024/04/02 05:33:00;;;;;;;6.93;3.42;;;;;;;6.04;100.00;98780.38;4782426;29;20130;-89
2024/04/02 05:35:26;;;;;;;7.68;4.10;;;;;;;6.05;100.00;98782.03;4752983;29;20042;-81
2024/04/02 05:37:53;;;;;;;7.93;3.90;;;;;;;6.07;100.00;98784.50;4780402;29;20492;-78
2024/04/02 05:40:19;;;;;;;7.18;3.65;;;;;;;6.06;100.00;98788.09;4769733;29;20125;-88
2024/04/02 05:42:45;;;;;;;6.40;3.42;;;;;;;6.06;100.00;98788.94;4759211;29;20043;-89
2024/04/02 05:45:12;;;;;;;5.85;3.63;;;;;;;6.05;100.00;98789.91;4770906;29;20130;-86
2024/04/02 05:47:38;;;;;;;7.55;3.20;;;;;;;6.00;100.00;98788.69;4753214;29;20529;-88
2024/04/02 05:50:05;;;;;;;5.07;3.60;;;;;;;5.96;100.00;98791.63;4751089;29;20043;-79
2024/04/02 05:52:30;;;;;;;5.40;3.65;;;;;;;5.94;100.00;98788.34;4768473;29;20042;-80
2024/04/02 05:54:57;;;;;;;6.30;2.90;;;;;;;5.98;100.00;98790.66;4765770;29;20155;-79
2024/04/02 05:57:23;;;;;;;5.50;3.25;;;;;;;6.02;100.00;98790.19;4778876;29;20051;-78
2024/04/02 05:59:52;;;;;;;6.10;3.53;;;;;;;6.10;100.00;98801.75;4755044;29;20051;-87
2024/04/02 06:02:18;;;;;;;4.95;3.25;;;;;;;6.10;100.00;98796.50;4757681;29;20112;-87
2024/04/02 06:04:45;;;;;;;6.55;3.40;;;;;;;6.11;100.00;98787.63;4773371;29;20042;-86
2024/04/02 06:07:12;;;;;;;6.55;3.10;;;;;;;6.03;100.00;98793.63;4757783;29;20219;-86
2024/04/02 06:09:38;;;;;;;5.57;3.22;;;;;;;5.90;100.00;98791.41;4750844;29;20062;-78
2024/04/02 06:12:05;;;;;;;5.65;3.20;;;;;;;5.78;100.00;98796.91;4769445;29;20042;-80
2024/04/02 06:14:31;;;;;;;4.38;3.63;;;;;;;5.79;100.00;98798.59;4782868;29;20103;-80
2024/04/02 06:16:57;;;;;;;5.80;3.15;;;;;;;5.87;100.00;98810.09;4769276;29;20134;-78
2024/04/02 06:19:23;;;;;;;4.90;3.63;;;;;;;5.91;100.00;98807.00;4757571;29;20501;-89
2024/04/02 06:21:49;;;;;;;7.00;3.85;;;;;;;5.93;100.00;98804.22;4783274;29;20033;-89
2024/04/02 06:24:15;;;;;;;5.90;4.13;;;;;;;5.95;100.00;98797.88;4765915;29;20129;-79
2024/04/02 06:26:41;;;;;;;6.13;4.72;;;;;;;5.93;100.00;98802.44;4778054;29;20064;-80
2024/04/02 06:29:06;;;;;;;7.85;5.10;;;;;;;5.88;100.00;98803.84;4778623;29;20050;-91
2024/04/02 06:31:33;;;;;;;7.22;4.05;;;;;;;5.90;100.00;98805.38;4766608;29;20452;-91
2024/04/02 06:33:59;;;;;;;7.65;4.30;;;;;;;5.96;100.00;98811.78;4756701;29;20043;-91
2024/04/02 06:36:25;;;;;;;8.30;4.65;;;;;;;6.02;100.00;98803.28;4767547;29;20047;-89
2024/04/02 06:38:51;;;;;;;13.77;4.43;;;;;;;6.09;100.00;98803.53;4756267;29;20563;-90
2024/04/02 06:41:17;;;;;;;6.78;4.25;;;;;;;6.21;100.00;98809.34;4756342;29;20176;-89
2024/04/02 06:43:43;;;;;;;8.18;4.88;;;;;;;6.25;100.00;98794.09;4754122;30;20062;-90
2024/04/02 06:46:09;;;;;;;7.60;4.32;;;;;;;6.31;100.00;98802.16;4762819;29;20148;-79
2024/04/02 06:48:35;;;;;;;10.07;4.55;;;;;;;6.36;100.00;98788.56;4773168;29;20035;-81
2024/04/02 06:51:03;;;;;;;6.10;4.25;;;;;;;6.44;100.00;98793.03;4770052;29;20038;-79
2024/04/02 06:53:30;;;;;;;10.70;4.60;;;;;;;6.52;100.00;98798.31;4763303;30;20370;-79
2024/04/02 06:55:56;;;;;;;6.97;4.15;;;;;;;6.56;100.00;98793.56;4765085;29;20034;-79
2024/04/02 06:58:22;;;;;;;8.30;3.90;;;;;;;6.61;100.00;98790.47;4761402;30;20043;-79
2024/04/02 07:00:49;;;;;;;6.72;4.72;;;;;;;6.60;100.00;98788.81;4769725;29;20046;-90
2024/04/02 07:03:19;;;;;;;7.50;4.35;;;;;;;6.57;100.00;98793.41;4770690;29;20046;-90
2024/04/02 07:05:46;;;;;;;7.40;4.45;;;;;;;6.55;100.00;98798.00;4762996;29;20093;-79
2024/04/02 07:08:13;;;;;;;7.07;3.58;;;;;;;6.58;100.00;98802.09;4791970;29;20027;-79
2024/04/02 07:10:44;;;;;;;6.15;4.05;;;;;;;6.65;100.00;98804.91;4770708;29;20074;-79
2024/04/02 07:13:11;;;;;;;7.53;4.15;;;;;;;6.66;100.00;98809.16;4752428;30;20097;-79
2024/04/02 07:15:39;;;;;;;6.63;4.78;;;;;;;6.67;100.00;98797.69;4762451;29;20104;-79
2024/04/02 07:18:06;;;;;;;21.65;7.15;;;;;;;6.78;100.00;98814.97;4765540;29;20086;-79
2024/04/02 07:20:32;;;;;;;7.82;4.45;;;;;;;6.87;100.00;98805.28;4754552;29;20293;-89
2024/04/02 07:22:59;;;;;;;11.73;5.05;;;;;;;6.93;100.00;98810.72;4774705;29;20043;-89
2024/04/02 07:25:25;;;;;;;6.25;4.75;;;;;;;6.99;100.00;98811.06;4756486;29;20047;-79
2024/04/02 07:27:52;;;;;;;10.25;5.65;;;;;;;7.05;100.00;98810.41;4752597;29;20062;-79
2024/04/02 07:30:18;;;;;;;8.75;5.68;;;;;;;7.11;100.00;98814.19;4746281;29;20678;-79
2024/04/02 07:32:44;;;;;;;8.48;5.15;;;;;;;7.14;100.00;98813.88;4772698;29;20047;-79
2024/04/02 07:35:10;;;;;;;9.68;6.03;;;;;;;7.14;100.00;98808.59;4785025;29;20043;-78
2024/04/02 07:37:35;;;;;;;11.05;5.15;;;;;;;7.13;100.00;98814.88;4764731;30;20417;-80
2024/04/02 07:40:02;;;;;;;11.07;5.20;;;;;;;7.15;100.00;98813.69;4774988;29;20123;-89
2024/04/02 07:42:28;;;;;;;9.90;5.38;;;;;;;7.16;100.00;98812.75;4777173;30;20443;-90
2024/04/02 07:44:54;;;;;;;6.65;5.15;;;;;;;7.15;100.00;98811.06;4786180;29;20076;-78
2024/04/02 07:47:20;;;;;;;8.02;5.57;;;;;;;7.16;100.00;98814.53;4767229;30;20038;-79
2024/04/02 07:49:45;;;;;;;10.27;6.35;;;;;;;7.18;100.00;98805.50;4767692;29;20039;-79
2024/04/02 07:52:11;;;;;;;9.88;5.88;;;;;;;7.24;100.00;98816.34;4761840;29;20051;-79
2024/04/02 07:54:37;;;;;;;9.73;6.30;;;;;;;7.27;100.00;98818.66;4769289;29;20577;-89
2024/04/02 07:57:03;;;;;;;10.07;6.13;;;;;;;7.32;100.00;98821.63;4774127;29;20126;-89
2024/04/02 07:59:29;;;;;;;8.57;5.97;;;;;;;7.41;100.00;98830.31;4756692;29;20081;-78
2024/04/02 08:01:54;;;;;;;10.13;7.30;;;;;;;7.50;100.00;98825.91;4775579;29;21097;-79
2024/04/02 08:04:20;;;;;;;8.05;6.03;;;;;;;7.56;100.00;98830.50;4779218;29;20051;-79
2024/04/02 08:06:47;;;;;;;10.88;7.05;;;;;;;7.62;100.00;98834.25;4753293;29;20046;-80
2024/04/02 08:09:12;;;;;;;8.70;7.35;;;;;;;7.64;100.00;98840.19;4754788;29;20634;-80
2024/04/02 08:11:44;;;;;;;10.48;7.78;;;;;;;7.69;100.00;98837.88;4752986;29;20085;-80
2024/04/02 08:14:10;;;;;;;13.82;9.90;;;;;;;7.65;100.00;98842.66;4767043;29;20072;-79
2024/04/02 08:16:36;;;;;;;13.10;9.63;;;;;;;7.72;100.00;98844.63;4754891;29;20453;-80
2024/04/02 08:19:02;;;;;;;13.38;10.73;;;;;;;7.74;100.00;98837.38;4757731;30;20090;-79
2024/04/02 08:21:28;;;;;;;17.30;11.73;;;;;;;7.74;100.00;98845.28;4768957;29;20484;-81
2024/04/02 08:23:54;;;;;;;13.10;10.70;;;;;;;7.74;100.00;98843.44;4770740;29;20086;-81
2024/04/02 08:26:20;;;;;;;15.77;9.45;;;;;;;7.74;100.00;98853.97;4751965;29;20042;-80
2024/04/02 08:28:46;;;;;;;14.25;10.82;;;;;;;7.71;100.00;98846.41;4768997;29;20042;-80
2024/04/02 08:31:12;;;;;;;16.90;12.38;;;;;;;7.65;100.00;98840.03;4769745;29;20390;-88
2024/04/02 08:33:38;;;;;;;21.80;12.05;;;;;;;7.63;100.00;98843.81;4761214;29;20066;-86
2024/04/02 08:36:04;;;;;;;18.55;12.75;;;;;;;7.69;100.00;98851.03;4749496;29;20133;-81
2024/04/02 08:38:30;;;;;;;18.83;12.27;;;;;;;7.71;100.00;98849.03;4756890;29;20111;-80
2024/04/02 08:41:01;;;;;;;15.25;10.93;;;;;;;7.77;100.00;98848.38;4772759;29;20039;-86
2024/04/02 08:43:29;;;;;;;15.80;11.07;;;;;;;7.77;100.00;98845.75;4767436;29;20463;-88
2024/04/02 08:45:59;;;;;;;18.20;11.00;;;;;;;7.80;100.00;98848.06;4754797;29;20531;-79
2024/04/02 08:48:26;;;;;;;15.88;11.52;;;;;;;7.75;100.00;98849.53;4767151;29;20070;-80
2024/04/02 08:50:53;;;;;;;15.70;11.68;;;;;;;7.81;100.00;98851.50;4768822;29;20085;-89
2024/04/02 08:53:19;;;;;;;15.05;10.73;;;;;;;7.86;100.00;98856.28;4767401;29;20043;-89
2024/04/02 08:55:46;;;;;;;17.63;11.75;;;;;;;7.87;100.00;98856.09;4773188;29;20457;-89
2024/04/02 08:58:13;;;;;;;17.23;11.20;;;;;;;7.90;100.00;98863.66;4770769;29;20809;-89
2024/04/02 09:00:43;;;;;;;13.57;10.70;;;;;;;7.95;100.00;98850.00;4753356;29;20039;-81
2024/04/02 09:03:12;;;;;;;14.00;10.43;;;;;;;7.97;100.00;98853.31;4766710;29;20374;-81
2024/04/02 09:05:38;;;;;;;14.18;10.48;;;;;;;8.01;100.00;98856.44;4755861;29;20050;-87
2024/04/02 09:08:14;;;;;;;15.13;10.75;;;;;;;8.06;100.00;98857.56;4755268;29;20433;-88
2024/04/02 09:10:41;;;;;;;19.05;11.45;;;;;;;8.08;100.00;98862.66;4768105;30;20043;-89
2024/04/02 09:13:06;;;;;;;14.57;10.32;;;;;;;8.11;100.00;98866.75;4761455;29;20039;-88
2024/04/02 09:15:32;;;;;;;17.88;10.60;;;;;;;8.15;100.00;98871.53;4753341;29;20100;-80
2024/04/02 09:17:58;;;;;;;14.38;10.55;;;;;;;8.23;100.00;98875.97;4764547;30;20036;-80
2024/04/02 09:20:24;;;;;;;14.13;9.85;;;;;;;8.30;100.00;98869.03;4766830;29;21125;-87
2024/04/02 09:22:49;;;;;;;14.93;9.48;;;;;;;8.37;100.00;98874.44;4758236;29;20149;-88
2024/04/02 09:25:21;;;;;;;14.52;9.30;;;;;;;8.41;100.00;98881.00;4751637;29;21378;-79
2024/04/02 09:27:48;;;;;;;14.30;8.40;;;;;;;8.41;100.00;98874.91;4762296;29;20047;-79
2024/04/02 09:30:14;;;;;;;14.23;8.75;;;;;;;8.42;100.00;98881.84;4772037;29;20046;-78
2024/04/02 09:32:42;;;;;;;12.93;8.45;;;;;;;8.44;100.00;98880.66;4764438;29;20047;-80
2024/04/02 09:35:21;;;;;;;18.02;9.30;;;;;;;8.55;100.00;98876.88;4766119;29;20063;-80
2024/04/02 09:37:50;;;;;;;14.25;8.93;;;;;;;8.53;100.00;98878.84;4759569;29;20457;-80
2024/04/02 09:40:17;;;;;;;12.27;7.13;;;;;;;8.59;100.00;98880.00;4757653;29;20043;-89
2024/04/02 09:42:47;;;;;;;15.13;8.40;;;;;;;8.60;100.00;98875.56;4762917;29;20520;-86
2024/04/02 09:45:14;;;;;;;13.25;7.40;;;;;;;8.65;100.00;98876.69;4766586;29;20050;-82
2024/04/02 09:47:43;;;;;;;11.82;7.78;;;;;;;8.67;100.00;98873.88;4770364;29;20175;-81
2024/04/02 09:50:39;;;;;;;9.45;7.28;;;;;;;8.77;100.00;98881.56;4771413;29;20130;-88
2024/04/02 09:53:06;;;;;;;8.75;6.07;;;;;;;8.76;100.00;98872.84;4762363;29;20050;-89
2024/04/02 09:55:33;;;;;;;11.60;6.15;;;;;;;8.82;100.00;98868.72;4769168;29;20038;-80
2024/04/02 09:58:01;;;;;;;12.23;6.90;;;;;;;8.83;100.00;98861.63;4766719;29;20548;-80
2024/04/02 10:00:29;;;;;;;9.98;5.93;;;;;;;8.76;100.00;98870.22;4755124;29;20540;-82
2024/04/02 10:02:56;;;;;;;10.48;6.90;;;;;;;8.76;100.00;98874.69;4749987;29;20047;-77
2024/04/02 10:05:26;;;;;;;9.57;5.97;;;;;;;8.72;100.00;98868.91;4752148;30;20039;-88
2024/04/02 10:08:01;;;;;;;12.55;5.82;;;;;;;8.71;100.00;98869.94;4756034;29;20050;-86
2024/04/02 10:10:29;;;;;;;8.65;5.80;;;;;;;8.73;100.00;98880.28;4770205;29;20043;-81
2024/04/02 10:12:55;;;;;;;7.40;5.43;;;;;;;8.73;100.00;98877.66;4792886;29;20051;-80
2024/04/02 10:15:22;;;;;;;9.50;5.13;;;;;;;8.69;100.00;98864.00;4754630;30;20453;-84
2024/04/02 10:17:59;;;;;;;10.02;5.40;;;;;;;8.78;100.00;98876.13;4757377;30;20028;-81
2024/04/02 10:20:27;;;;;;;7.38;4.70;;;;;;;8.73;100.00;98867.91;4768386;29;20130;-80
2024/04/02 10:22:54;;;;;;;7.13;4.72;;;;;;;8.85;100.00;98864.91;4763358;29;20038;-81
2024/04/02 10:25:22;;;;;;;9.57;5.28;;;;;;;8.90;100.00;98859.94;4750324;29;20400;-81
2024/04/02 10:27:49;;;;;;;9.02;4.63;;;;;;;8.92;100.00;98865.84;4754664;29;20384;-81
2024/04/02 10:30:26;;;;;;;11.32;5.38;;;;;;;9.02;100.00;98858.56;4761434;29;20103;-81
2024/04/02 10:32:56;;;;;;;6.05;4.72;;;;;;;9.07;100.00;98860.69;4777362;29;20041;-80
2024/04/02 10:35:23;;;;;;;6.57;4.72;;;;;;;9.11;100.00;98863.78;4775970;29;20050;-80
2024/04/02 10:37:58;;;;;;;7.15;4.35;;;;;;;9.14;100.00;98872.16;4790560;29;20074;-83
2024/04/02 10:40:25;;;;;;;8.40;4.57;;;;;;;9.14;100.00;98866.06;4765004;29;20046;-83
2024/04/02 10:43:16;;;;;;;8.88;3.92;;;;;;;9.11;100.00;98861.16;4780836;29;20041;-85
2024/04/02 10:45:42;;;;;;;6.82;3.92;;;;;;;9.13;100.00;98872.31;4755511;29;20065;-81
2024/04/02 10:48:08;;;;;;;5.38;3.00;;;;;;;9.25;100.00;98867.50;4753107;29;20397;-80
2024/04/02 10:50:36;;;;;;;5.43;3.38;;;;;;;9.34;100.00;98869.06;4769012;29;20503;-82
2024/04/02 10:53:02;;;;;;;9.05;4.10;;;;;;;9.44;100.00;98874.13;4769318;29;20043;-82
2024/04/02 10:58:42;;;;;;;6.28;3.70;;;;;;;9.63;100.00;98864.91;4762310;29;20079;-81
2024/04/02 11:01:08;;;;;;;8.25;4.22;;;;;;;9.65;100.00;98859.47;4786087;29;20065;-80
2024/04/02 11:03:34;;;;;;;7.40;3.95;;;;;;;9.71;100.00;98861.38;4749776;29;20042;-81
2024/04/02 11:06:03;;;;;;;4.45;4.00;;;;;;;9.65;100.00;98862.09;4757521;29;20069;-80
2024/04/02 11:08:29;;;;;;;5.95;3.75;;;;;;;9.72;100.00;98867.47;4757437;29;20074;-80
2024/04/02 11:10:55;;;;;;;8.30;4.15;;;;;;;9.84;100.00;98866.06;4741863;29;20229;-79
2024/04/02 11:13:25;;;;;;;8.93;4.32;;;;;;;10.06;100.00;98855.63;4778587;29;20107;-79
2024/04/02 11:15:52;;;;;;;6.18;3.40;;;;;;;10.14;100.00;98850.28;4800504;29;20043;-77
2024/04/02 11:18:22;;;;;;;4.43;2.90;;;;;;;10.34;100.00;98848.88;4757871;29;20054;-80
2024/04/02 11:20:48;;;;;;;6.95;3.03;;;;;;;10.34;100.00;98852.34;4769431;29;20827;-81
2024/04/02 11:26:07;;;;;;;5.32;3.30;;;;;;;10.59;100.00;98844.16;4773760;29;20031;-78
2024/04/02 11:28:33;;;;;;;6.50;3.03;;;;;;;10.56;100.00;98846.38;4780528;29;20136;-79
2024/04/02 11:30:59;;;;;;;6.22;2.45;;;;;;;10.57;100.00;98848.00;4771805;29;20065;-79
2024/04/02 11:33:25;;;;;;;9.98;3.22;;;;;;;10.57;100.00;98843.53;4770479;29;20433;-78
2024/04/02 11:35:55;;;;;;;3.53;2.58;;;;;;;10.64;100.00;98852.38;4774891;29;20035;-80
2024/04/02 11:38:21;;;;;;;7.65;2.70;;;;;;;10.59;100.00;98846.81;4765618;29;20039;-78